sensor_id;sensor_type;location;lat;lon;timestamp;P1;durP1;ratioP1;P2;durP2;ratioP2
57297;SDS011;43147;50.972;18.210;2023-02-28T00:00:47;33.20;;;13.40;;
57297;SDS011;43147;50.972;18.210;2023-02-28T00:03:14;21.50;;;11.70;;
57297;SDS011;43147;50.972;18.210;2023-02-28T00:05:40;25.90;;;11.90;;
57297;SDS011;43147;50.972;18.210;2023-02-28T00:08:06;17.90;;;10.60;;
57297;SDS011;43147;50.972;18.210;2023-02-28T00:10:33;21.40;;;10.90;;
57297;SDS011;43147;50.972;18.210;2023-02-28T00:12:59;22.10;;;12.30;;
57297;SDS011;43147;50.972;18.210;2023-02-28T00:15:27;29.50;;;13.10;;
57297;SDS011;43147;50.972;18.210;2023-02-28T00:17:53;22.10;;;11.20;;
57297;SDS011;43147;50.972;18.210;2023-02-28T00:20:19;30.50;;;13.30;;
57297;SDS011;43147;50.972;18.210;2023-02-28T00:22:47;30.50;;;12.30;;
57297;SDS011;43147;50.972;18.210;2023-02-28T00:25:14;29.20;;;11.60;;
57297;SDS011;43147;50.972;18.210;2023-02-28T00:27:42;26.50;;;12.70;;
57297;SDS011;43147;50.972;18.210;2023-02-28T00:30:09;30.70;;;13.10;;
57297;SDS011;43147;50.972;18.210;2023-02-28T00:32:37;33.40;;;14.40;;
57297;SDS011;43147;50.972;18.210;2023-02-28T00:35:03;37.50;;;15.50;;
57297;SDS011;43147;50.972;18.210;2023-02-28T00:37:30;35.90;;;16.40;;
57297;SDS011;43147;50.972;18.210;2023-02-28T00:39:56;39.80;;;15.50;;
57297;SDS011;43147;50.972;18.210;2023-02-28T00:42:21;37.60;;;15.80;;
57297;SDS011;43147;50.972;18.210;2023-02-28T00:44:47;45.10;;;16.70;;
57297;SDS011;43147;50.972;18.210;2023-02-28T00:47:13;37.50;;;16.40;;
57297;SDS011;43147;50.972;18.210;2023-02-28T00:49:39;32.30;;;14.90;;
57297;SDS011;43147;50.972;18.210;2023-02-28T00:52:05;27.90;;;14.40;;
57297;SDS011;43147;50.972;18.210;2023-02-28T00:54:31;33.00;;;15.00;;
57297;SDS011;43147;50.972;18.210;2023-02-28T00:56:57;35.30;;;13.50;;
57297;SDS011;43147;50.972;18.210;2023-02-28T00:59:23;25.20;;;12.40;;
57297;SDS011;43147;50.972;18.210;2023-02-28T01:01:48;29.70;;;13.40;;
57297;SDS011;43147;50.972;18.210;2023-02-28T01:04:14;20.60;;;10.80;;
57297;SDS011;43147;50.972;18.210;2023-02-28T01:06:40;23.40;;;12.10;;
57297;SDS011;43147;50.972;18.210;2023-02-28T01:09:06;15.60;;;9.70;;
57297;SDS011;43147;50.972;18.210;2023-02-28T01:11:35;20.50;;;10.50;;
57297;SDS011;43147;50.972;18.210;2023-02-28T01:14:01;19.00;;;10.60;;
57297;SDS011;43147;50.972;18.210;2023-02-28T01:16:27;10.10;;;7.50;;
57297;SDS011;43147;50.972;18.210;2023-02-28T01:18:53;13.60;;;7.90;;
57297;SDS011;43147;50.972;18.210;2023-02-28T01:21:20;11.30;;;7.70;;
57297;SDS011;43147;50.972;18.210;2023-02-28T01:23:46;15.50;;;9.30;;
57297;SDS011;43147;50.972;18.210;2023-02-28T01:26:16;18.30;;;9.60;;
57297;SDS011;43147;50.972;18.210;2023-02-28T01:28:43;13.90;;;8.80;;
57297;SDS011;43147;50.972;18.210;2023-02-28T01:31:09;18.50;;;10.80;;
57297;SDS011;43147;50.972;18.210;2023-02-28T01:33:35;17.90;;;9.70;;
57297;SDS011;43147;50.972;18.210;2023-02-28T01:36:02;16.20;;;9.00;;
57297;SDS011;43147;50.972;18.210;2023-02-28T01:38:29;13.60;;;8.50;;
57297;SDS011;43147;50.972;18.210;2023-02-28T01:40:55;12.80;;;8.10;;
57297;SDS011;43147;50.972;18.210;2023-02-28T01:45:48;13.00;;;9.10;;
57297;SDS011;43147;50.972;18.210;2023-02-28T01:48:14;17.00;;;9.70;;
57297;SDS011;43147;50.972;18.210;2023-02-28T01:50:41;15.60;;;10.20;;
57297;SDS011;43147;50.972;18.210;2023-02-28T01:53:10;19.20;;;9.20;;
57297;SDS011;43147;50.972;18.210;2023-02-28T01:55:38;14.00;;;9.00;;
57297;SDS011;43147;50.972;18.210;2023-02-28T01:58:04;14.40;;;8.50;;
57297;SDS011;43147;50.972;18.210;2023-02-28T02:00:31;16.10;;;8.90;;
57297;SDS011;43147;50.972;18.210;2023-02-28T02:02:57;13.00;;;7.90;;
57297;SDS011;43147;50.972;18.210;2023-02-28T02:05:26;19.10;;;8.40;;
57297;SDS011;43147;50.972;18.210;2023-02-28T02:07:58;28.70;;;11.30;;
57297;SDS011;43147;50.972;18.210;2023-02-28T02:10:32;25.30;;;11.50;;
57297;SDS011;43147;50.972;18.210;2023-02-28T02:13:05;15.60;;;8.80;;
57297;SDS011;43147;50.972;18.210;2023-02-28T02:18:59;18.30;;;9.80;;
57297;SDS011;43147;50.972;18.210;2023-02-28T02:26:47;15.80;;;9.50;;
57297;SDS011;43147;50.972;18.210;2023-02-28T02:31:48;14.90;;;7.30;;
57297;SDS011;43147;50.972;18.210;2023-02-28T02:36:51;20.60;;;10.40;;
57297;SDS011;43147;50.972;18.210;2023-02-28T02:42:16;17.80;;;10.20;;
57297;SDS011;43147;50.972;18.210;2023-02-28T02:44:54;18.30;;;10.40;;
57297;SDS011;43147;50.972;18.210;2023-02-28T02:47:24;21.20;;;10.90;;
57297;SDS011;43147;50.972;18.210;2023-02-28T02:49:52;17.00;;;11.40;;
57297;SDS011;43147;50.972;18.210;2023-02-28T02:52:22;49.40;;;19.00;;
57297;SDS011;43147;50.972;18.210;2023-02-28T02:54:50;46.80;;;19.00;;
57297;SDS011;43147;50.972;18.210;2023-02-28T02:57:23;106.00;;;33.10;;
57297;SDS011;43147;50.972;18.210;2023-02-28T02:59:51;28.80;;;12.40;;
57297;SDS011;43147;50.972;18.210;2023-02-28T03:02:18;27.60;;;12.30;;
57297;SDS011;43147;50.972;18.210;2023-02-28T03:04:46;22.80;;;13.20;;
57297;SDS011;43147;50.972;18.210;2023-02-28T03:07:15;30.70;;;14.50;;
57297;SDS011;43147;50.972;18.210;2023-02-28T03:09:49;34.40;;;13.90;;
57297;SDS011;43147;50.972;18.210;2023-02-28T03:12:17;26.70;;;13.50;;
57297;SDS011;43147;50.972;18.210;2023-02-28T03:17:21;20.50;;;10.40;;
57297;SDS011;43147;50.972;18.210;2023-02-28T03:19:55;21.90;;;10.60;;
57297;SDS011;43147;50.972;18.210;2023-02-28T03:22:40;33.30;;;11.90;;
57297;SDS011;43147;50.972;18.210;2023-02-28T03:25:22;25.10;;;11.20;;
57297;SDS011;43147;50.972;18.210;2023-02-28T03:28:09;22.10;;;11.30;;
57297;SDS011;43147;50.972;18.210;2023-02-28T03:30:42;23.50;;;11.60;;
57297;SDS011;43147;50.972;18.210;2023-02-28T03:34:02;15.90;;;10.50;;
57297;SDS011;43147;50.972;18.210;2023-02-28T03:36:13;23.40;;;10.90;;
57297;SDS011;43147;50.972;18.210;2023-02-28T03:38:46;27.40;;;12.70;;
57297;SDS011;43147;50.972;18.210;2023-02-28T03:41:23;22.80;;;11.30;;
57297;SDS011;43147;50.972;18.210;2023-02-28T03:43:56;26.50;;;11.80;;
57297;SDS011;43147;50.972;18.210;2023-02-28T03:46:25;28.20;;;12.10;;
57297;SDS011;43147;50.972;18.210;2023-02-28T03:48:57;19.80;;;10.50;;
57297;SDS011;43147;50.972;18.210;2023-02-28T03:53:54;24.10;;;12.20;;
57297;SDS011;43147;50.972;18.210;2023-02-28T03:56:31;30.50;;;10.80;;
57297;SDS011;43147;50.972;18.210;2023-02-28T03:59:04;28.70;;;11.80;;
57297;SDS011;43147;50.972;18.210;2023-02-28T04:01:40;20.40;;;11.30;;
57297;SDS011;43147;50.972;18.210;2023-02-28T04:04:08;26.80;;;12.90;;
57297;SDS011;43147;50.972;18.210;2023-02-28T04:06:35;23.50;;;10.80;;
57297;SDS011;43147;50.972;18.210;2023-02-28T04:09:02;23.10;;;12.00;;
57297;SDS011;43147;50.972;18.210;2023-02-28T04:11:36;28.90;;;12.60;;
57297;SDS011;43147;50.972;18.210;2023-02-28T04:14:05;22.40;;;9.60;;
57297;SDS011;43147;50.972;18.210;2023-02-28T04:16:32;35.80;;;13.60;;
57297;SDS011;43147;50.972;18.210;2023-02-28T04:18:59;34.00;;;13.90;;
57297;SDS011;43147;50.972;18.210;2023-02-28T04:21:28;33.80;;;15.70;;
57297;SDS011;43147;50.972;18.210;2023-02-28T04:23:54;35.30;;;14.40;;
57297;SDS011;43147;50.972;18.210;2023-02-28T04:26:20;37.60;;;14.40;;
57297;SDS011;43147;50.972;18.210;2023-02-28T04:28:46;27.70;;;12.70;;
57297;SDS011;43147;50.972;18.210;2023-02-28T04:31:12;38.50;;;15.30;;
57297;SDS011;43147;50.972;18.210;2023-02-28T04:33:39;35.80;;;14.10;;
57297;SDS011;43147;50.972;18.210;2023-02-28T04:36:06;36.50;;;14.40;;
57297;SDS011;43147;50.972;18.210;2023-02-28T04:38:37;32.40;;;14.10;;
57297;SDS011;43147;50.972;18.210;2023-02-28T04:41:03;29.80;;;14.80;;
57297;SDS011;43147;50.972;18.210;2023-02-28T04:43:29;41.70;;;15.20;;
57297;SDS011;43147;50.972;18.210;2023-02-28T04:45:56;28.70;;;12.80;;
57297;SDS011;43147;50.972;18.210;2023-02-28T04:48:23;29.40;;;14.00;;
57297;SDS011;43147;50.972;18.210;2023-02-28T04:50:50;34.00;;;15.60;;
57297;SDS011;43147;50.972;18.210;2023-02-28T04:53:16;31.60;;;14.20;;
57297;SDS011;43147;50.972;18.210;2023-02-28T04:55:42;31.50;;;15.10;;
57297;SDS011;43147;50.972;18.210;2023-02-28T04:58:08;37.20;;;14.70;;
57297;SDS011;43147;50.972;18.210;2023-02-28T05:00:34;37.40;;;15.70;;
57297;SDS011;43147;50.972;18.210;2023-02-28T05:02:59;42.50;;;16.80;;
57297;SDS011;43147;50.972;18.210;2023-02-28T05:05:25;41.80;;;16.90;;
57297;SDS011;43147;50.972;18.210;2023-02-28T05:07:51;35.70;;;16.10;;
57297;SDS011;43147;50.972;18.210;2023-02-28T05:10:16;40.20;;;17.50;;
57297;SDS011;43147;50.972;18.210;2023-02-28T05:12:42;43.30;;;16.80;;
57297;SDS011;43147;50.972;18.210;2023-02-28T05:15:09;49.90;;;19.70;;
57297;SDS011;43147;50.972;18.210;2023-02-28T05:17:38;51.60;;;22.80;;
57297;SDS011;43147;50.972;18.210;2023-02-28T05:20:03;58.90;;;23.20;;
57297;SDS011;43147;50.972;18.210;2023-02-28T05:22:30;64.30;;;25.10;;
57297;SDS011;43147;50.972;18.210;2023-02-28T05:24:55;66.00;;;26.70;;
57297;SDS011;43147;50.972;18.210;2023-02-28T05:27:21;65.10;;;28.60;;
57297;SDS011;43147;50.972;18.210;2023-02-28T05:29:46;65.20;;;28.90;;
57297;SDS011;43147;50.972;18.210;2023-02-28T05:32:12;83.90;;;29.20;;
57297;SDS011;43147;50.972;18.210;2023-02-28T05:34:39;70.60;;;27.40;;
57297;SDS011;43147;50.972;18.210;2023-02-28T05:37:05;62.90;;;24.00;;
57297;SDS011;43147;50.972;18.210;2023-02-28T05:39:33;74.10;;;25.20;;
57297;SDS011;43147;50.972;18.210;2023-02-28T05:41:58;54.50;;;23.60;;
57297;SDS011;43147;50.972;18.210;2023-02-28T05:44:24;51.50;;;22.30;;
57297;SDS011;43147;50.972;18.210;2023-02-28T05:46:50;60.00;;;25.90;;
57297;SDS011;43147;50.972;18.210;2023-02-28T05:49:15;60.80;;;26.10;;
57297;SDS011;43147;50.972;18.210;2023-02-28T05:51:41;58.20;;;27.10;;
57297;SDS011;43147;50.972;18.210;2023-02-28T05:54:07;63.90;;;29.20;;
57297;SDS011;43147;50.972;18.210;2023-02-28T05:56:32;72.10;;;33.00;;
57297;SDS011;43147;50.972;18.210;2023-02-28T05:59:00;74.90;;;29.30;;
57297;SDS011;43147;50.972;18.210;2023-02-28T06:01:40;58.70;;;27.30;;
57297;SDS011;43147;50.972;18.210;2023-02-28T06:04:08;72.70;;;31.40;;
57297;SDS011;43147;50.972;18.210;2023-02-28T06:06:34;63.40;;;28.90;;
57297;SDS011;43147;50.972;18.210;2023-02-28T06:09:04;61.20;;;27.60;;
57297;SDS011;43147;50.972;18.210;2023-02-28T06:11:30;71.90;;;28.80;;
57297;SDS011;43147;50.972;18.210;2023-02-28T06:13:57;66.80;;;31.70;;
57297;SDS011;43147;50.972;18.210;2023-02-28T06:16:25;55.40;;;25.70;;
57297;SDS011;43147;50.972;18.210;2023-02-28T06:18:52;51.30;;;27.70;;
57297;SDS011;43147;50.972;18.210;2023-02-28T06:21:23;46.30;;;26.30;;
57297;SDS011;43147;50.972;18.210;2023-02-28T06:23:50;38.90;;;24.50;;
57297;SDS011;43147;50.972;18.210;2023-02-28T06:26:15;35.10;;;23.90;;
57297;SDS011;43147;50.972;18.210;2023-02-28T06:28:41;40.20;;;25.40;;
57297;SDS011;43147;50.972;18.210;2023-02-28T06:31:11;34.60;;;23.00;;
57297;SDS011;43147;50.972;18.210;2023-02-28T06:33:40;51.90;;;27.20;;
57297;SDS011;43147;50.972;18.210;2023-02-28T06:36:06;52.70;;;28.60;;
57297;SDS011;43147;50.972;18.210;2023-02-28T06:38:32;47.20;;;27.70;;
57297;SDS011;43147;50.972;18.210;2023-02-28T06:40:59;47.40;;;32.80;;
57297;SDS011;43147;50.972;18.210;2023-02-28T06:43:27;64.30;;;34.50;;
57297;SDS011;43147;50.972;18.210;2023-02-28T06:45:57;52.00;;;34.00;;
57297;SDS011;43147;50.972;18.210;2023-02-28T06:48:25;74.70;;;46.60;;
57297;SDS011;43147;50.972;18.210;2023-02-28T06:50:52;98.20;;;58.40;;
57297;SDS011;43147;50.972;18.210;2023-02-28T06:53:26;88.60;;;53.80;;
57297;SDS011;43147;50.972;18.210;2023-02-28T06:55:51;74.90;;;50.10;;
57297;SDS011;43147;50.972;18.210;2023-02-28T06:58:17;73.80;;;47.40;;
57297;SDS011;43147;50.972;18.210;2023-02-28T07:00:44;86.00;;;54.30;;
57297;SDS011;43147;50.972;18.210;2023-02-28T07:03:11;93.80;;;73.10;;
57297;SDS011;43147;50.972;18.210;2023-02-28T07:05:38;72.20;;;44.30;;
57297;SDS011;43147;50.972;18.210;2023-02-28T07:08:04;84.30;;;49.50;;
57297;SDS011;43147;50.972;18.210;2023-02-28T07:10:31;70.20;;;42.20;;
57297;SDS011;43147;50.972;18.210;2023-02-28T07:12:58;108.70;;;61.40;;
57297;SDS011;43147;50.972;18.210;2023-02-28T07:15:26;87.40;;;49.50;;
57297;SDS011;43147;50.972;18.210;2023-02-28T07:17:54;78.50;;;45.10;;
57297;SDS011;43147;50.972;18.210;2023-02-28T07:20:19;63.90;;;41.60;;
57297;SDS011;43147;50.972;18.210;2023-02-28T07:22:45;59.10;;;37.10;;
57297;SDS011;43147;50.972;18.210;2023-02-28T07:25:10;57.60;;;37.60;;
57297;SDS011;43147;50.972;18.210;2023-02-28T07:27:36;41.50;;;26.60;;
57297;SDS011;43147;50.972;18.210;2023-02-28T07:30:02;33.30;;;21.60;;
57297;SDS011;43147;50.972;18.210;2023-02-28T07:32:29;28.40;;;19.20;;
57297;SDS011;43147;50.972;18.210;2023-02-28T07:34:54;32.90;;;21.30;;
57297;SDS011;43147;50.972;18.210;2023-02-28T07:37:20;31.80;;;22.30;;
57297;SDS011;43147;50.972;18.210;2023-02-28T07:39:46;30.60;;;23.00;;
57297;SDS011;43147;50.972;18.210;2023-02-28T07:42:14;31.30;;;20.60;;
57297;SDS011;43147;50.972;18.210;2023-02-28T07:44:40;26.10;;;17.80;;
57297;SDS011;43147;50.972;18.210;2023-02-28T07:47:06;35.50;;;21.70;;
57297;SDS011;43147;50.972;18.210;2023-02-28T07:49:34;25.20;;;17.10;;
57297;SDS011;43147;50.972;18.210;2023-02-28T07:52:02;35.60;;;22.20;;
57297;SDS011;43147;50.972;18.210;2023-02-28T07:54:30;32.80;;;21.60;;
57297;SDS011;43147;50.972;18.210;2023-02-28T07:56:56;25.80;;;17.80;;
57297;SDS011;43147;50.972;18.210;2023-02-28T07:59:22;25.60;;;17.60;;
57297;SDS011;43147;50.972;18.210;2023-02-28T08:01:47;15.60;;;11.00;;
57297;SDS011;43147;50.972;18.210;2023-02-28T08:04:18;11.30;;;7.30;;
57297;SDS011;43147;50.972;18.210;2023-02-28T08:06:44;9.60;;;6.90;;
57297;SDS011;43147;50.972;18.210;2023-02-28T08:09:10;5.40;;;4.80;;
57297;SDS011;43147;50.972;18.210;2023-02-28T08:11:36;8.40;;;6.70;;
57297;SDS011;43147;50.972;18.210;2023-02-28T08:14:02;9.60;;;6.90;;
57297;SDS011;43147;50.972;18.210;2023-02-28T08:16:27;13.40;;;7.70;;
57297;SDS011;43147;50.972;18.210;2023-02-28T08:18:54;8.10;;;7.30;;
57297;SDS011;43147;50.972;18.210;2023-02-28T08:21:20;13.90;;;8.60;;
57297;SDS011;43147;50.972;18.210;2023-02-28T08:23:47;7.40;;;6.40;;
57297;SDS011;43147;50.972;18.210;2023-02-28T08:26:14;6.90;;;5.50;;
57297;SDS011;43147;50.972;18.210;2023-02-28T08:28:41;7.60;;;5.80;;
57297;SDS011;43147;50.972;18.210;2023-02-28T08:31:07;8.70;;;6.60;;
57297;SDS011;43147;50.972;18.210;2023-02-28T08:33:34;8.60;;;6.30;;
57297;SDS011;43147;50.972;18.210;2023-02-28T08:36:00;9.20;;;5.70;;
57297;SDS011;43147;50.972;18.210;2023-02-28T08:38:26;11.70;;;6.10;;
57297;SDS011;43147;50.972;18.210;2023-02-28T08:40:58;20.20;;;10.60;;
57297;SDS011;43147;50.972;18.210;2023-02-28T08:43:26;9.00;;;5.60;;
57297;SDS011;43147;50.972;18.210;2023-02-28T08:45:52;9.60;;;7.50;;
57297;SDS011;43147;50.972;18.210;2023-02-28T08:48:18;8.30;;;6.10;;
57297;SDS011;43147;50.972;18.210;2023-02-28T08:50:54;8.30;;;7.40;;
57297;SDS011;43147;50.972;18.210;2023-02-28T08:53:23;13.40;;;7.70;;
57297;SDS011;43147;50.972;18.210;2023-02-28T08:55:59;11.10;;;9.90;;
57297;SDS011;43147;50.972;18.210;2023-02-28T08:58:26;10.50;;;8.60;;
57297;SDS011;43147;50.972;18.210;2023-02-28T09:00:52;10.00;;;8.50;;
57297;SDS011;43147;50.972;18.210;2023-02-28T09:03:17;10.70;;;9.30;;
57297;SDS011;43147;50.972;18.210;2023-02-28T09:05:55;11.80;;;9.60;;
57297;SDS011;43147;50.972;18.210;2023-02-28T09:08:23;9.10;;;8.10;;
57297;SDS011;43147;50.972;18.210;2023-02-28T09:10:50;9.60;;;7.20;;
57297;SDS011;43147;50.972;18.210;2023-02-28T09:13:16;10.90;;;7.40;;
57297;SDS011;43147;50.972;18.210;2023-02-28T09:15:45;7.90;;;6.30;;
57297;SDS011;43147;50.972;18.210;2023-02-28T09:18:18;8.10;;;6.90;;
57297;SDS011;43147;50.972;18.210;2023-02-28T09:20:44;8.90;;;7.70;;
57297;SDS011;43147;50.972;18.210;2023-02-28T09:23:10;8.60;;;7.40;;
57297;SDS011;43147;50.972;18.210;2023-02-28T09:25:37;8.70;;;7.80;;
57297;SDS011;43147;50.972;18.210;2023-02-28T09:28:03;8.20;;;6.70;;
57297;SDS011;43147;50.972;18.210;2023-02-28T09:30:29;9.40;;;7.00;;
57297;SDS011;43147;50.972;18.210;2023-02-28T09:32:55;6.90;;;6.00;;
57297;SDS011;43147;50.972;18.210;2023-02-28T09:35:21;6.80;;;6.10;;
57297;SDS011;43147;50.972;18.210;2023-02-28T09:37:51;9.70;;;6.90;;
57297;SDS011;43147;50.972;18.210;2023-02-28T09:40:21;6.40;;;5.80;;
57297;SDS011;43147;50.972;18.210;2023-02-28T09:42:48;7.40;;;5.70;;
57297;SDS011;43147;50.972;18.210;2023-02-28T09:45:22;10.20;;;7.70;;
57297;SDS011;43147;50.972;18.210;2023-02-28T09:47:53;10.40;;;6.30;;
57297;SDS011;43147;50.972;18.210;2023-02-28T09:50:38;7.20;;;6.40;;
57297;SDS011;43147;50.972;18.210;2023-02-28T09:53:13;7.80;;;5.80;;
57297;SDS011;43147;50.972;18.210;2023-02-28T09:55:47;6.70;;;6.00;;
57297;SDS011;43147;50.972;18.210;2023-02-28T09:58:20;11.20;;;6.40;;
57297;SDS011;43147;50.972;18.210;2023-02-28T10:01:06;9.50;;;7.10;;
57297;SDS011;43147;50.972;18.210;2023-02-28T10:03:50;18.30;;;9.90;;
57297;SDS011;43147;50.972;18.210;2023-02-28T10:06:20;12.90;;;10.20;;
57297;SDS011;43147;50.972;18.210;2023-02-28T10:11:23;9.60;;;7.30;;
57297;SDS011;43147;50.972;18.210;2023-02-28T10:14:09;11.40;;;8.70;;
57297;SDS011;43147;50.972;18.210;2023-02-28T10:19:23;10.30;;;9.00;;
57297;SDS011;43147;50.972;18.210;2023-02-28T10:21:59;8.00;;;6.80;;
57297;SDS011;43147;50.972;18.210;2023-02-28T10:24:28;8.80;;;6.70;;
57297;SDS011;43147;50.972;18.210;2023-02-28T10:27:13;12.60;;;10.00;;
57297;SDS011;43147;50.972;18.210;2023-02-28T10:29:44;15.30;;;10.50;;
57297;SDS011;43147;50.972;18.210;2023-02-28T10:32:14;14.40;;;9.90;;
57297;SDS011;43147;50.972;18.210;2023-02-28T10:34:42;15.30;;;10.70;;
57297;SDS011;43147;50.972;18.210;2023-02-28T10:37:08;10.90;;;8.40;;
57297;SDS011;43147;50.972;18.210;2023-02-28T10:39:43;17.10;;;11.30;;
57297;SDS011;43147;50.972;18.210;2023-02-28T10:47:51;15.10;;;11.10;;
57297;SDS011;43147;50.972;18.210;2023-02-28T10:50:34;13.10;;;11.10;;
57297;SDS011;43147;50.972;18.210;2023-02-28T11:03:57;12.00;;;9.50;;
57297;SDS011;43147;50.972;18.210;2023-02-28T11:06:24;11.00;;;9.80;;
57297;SDS011;43147;50.972;18.210;2023-02-28T11:08:54;12.70;;;9.00;;
57297;SDS011;43147;50.972;18.210;2023-02-28T11:11:21;11.70;;;9.40;;
57297;SDS011;43147;50.972;18.210;2023-02-28T11:13:50;11.70;;;10.40;;
57297;SDS011;43147;50.972;18.210;2023-02-28T11:16:18;12.50;;;9.20;;
57297;SDS011;43147;50.972;18.210;2023-02-28T11:21:21;10.50;;;9.20;;
57297;SDS011;43147;50.972;18.210;2023-02-28T11:23:52;11.70;;;10.40;;
57297;SDS011;43147;50.972;18.210;2023-02-28T11:26:38;10.60;;;9.50;;
57297;SDS011;43147;50.972;18.210;2023-02-28T11:29:16;13.10;;;9.60;;
57297;SDS011;43147;50.972;18.210;2023-02-28T11:31:59;13.50;;;9.90;;
57297;SDS011;43147;50.972;18.210;2023-02-28T11:34:28;16.10;;;10.50;;
57297;SDS011;43147;50.972;18.210;2023-02-28T11:36:54;16.00;;;10.30;;
57297;SDS011;43147;50.972;18.210;2023-02-28T11:39:22;10.20;;;9.20;;
57297;SDS011;43147;50.972;18.210;2023-02-28T11:47:25;13.30;;;10.90;;
57297;SDS011;43147;50.972;18.210;2023-02-28T11:52:48;11.50;;;9.30;;
57297;SDS011;43147;50.972;18.210;2023-02-28T11:55:39;11.40;;;9.00;;
57297;SDS011;43147;50.972;18.210;2023-02-28T12:01:28;13.40;;;11.90;;
57297;SDS011;43147;50.972;18.210;2023-02-28T12:09:44;13.80;;;11.40;;
57297;SDS011;43147;50.972;18.210;2023-02-28T12:12:22;12.70;;;11.40;;
57297;SDS011;43147;50.972;18.210;2023-02-28T12:17:43;22.00;;;15.50;;
57297;SDS011;43147;50.972;18.210;2023-02-28T12:28:29;13.00;;;11.50;;
57297;SDS011;43147;50.972;18.210;2023-02-28T12:31:04;13.70;;;12.00;;
57297;SDS011;43147;50.972;18.210;2023-02-28T12:33:36;14.10;;;11.40;;
57297;SDS011;43147;50.972;18.210;2023-02-28T12:36:09;31.80;;;21.70;;
57297;SDS011;43147;50.972;18.210;2023-02-28T12:41:14;14.00;;;12.40;;
57297;SDS011;43147;50.972;18.210;2023-02-28T12:44:01;20.80;;;13.70;;
57297;SDS011;43147;50.972;18.210;2023-02-28T12:46:33;21.30;;;14.30;;
57297;SDS011;43147;50.972;18.210;2023-02-28T12:49:06;18.30;;;13.40;;
57297;SDS011;43147;50.972;18.210;2023-02-28T12:51:35;20.00;;;13.60;;
57297;SDS011;43147;50.972;18.210;2023-02-28T12:56:38;21.30;;;13.80;;
57297;SDS011;43147;50.972;18.210;2023-02-28T13:02:00;40.00;;;17.40;;
57297;SDS011;43147;50.972;18.210;2023-02-28T13:07:08;27.00;;;12.90;;
57297;SDS011;43147;50.972;18.210;2023-02-28T13:09:55;39.90;;;19.40;;
57297;SDS011;43147;50.972;18.210;2023-02-28T13:12:23;23.80;;;14.20;;
57297;SDS011;43147;50.972;18.210;2023-02-28T13:14:49;27.20;;;14.10;;
57297;SDS011;43147;50.972;18.210;2023-02-28T13:17:19;31.60;;;15.30;;
57297;SDS011;43147;50.972;18.210;2023-02-28T13:27:57;27.60;;;13.50;;
57297;SDS011;43147;50.972;18.210;2023-02-28T13:38:50;35.80;;;16.70;;
57297;SDS011;43147;50.972;18.210;2023-02-28T14:00:05;20.90;;;10.30;;
57297;SDS011;43147;50.972;18.210;2023-02-28T14:05:41;18.40;;;10.40;;
57297;SDS011;43147;50.972;18.210;2023-02-28T14:08:16;28.30;;;13.50;;
57297;SDS011;43147;50.972;18.210;2023-02-28T14:10:49;25.60;;;15.10;;
57297;SDS011;43147;50.972;18.210;2023-02-28T14:13:43;14.90;;;9.80;;
57297;SDS011;43147;50.972;18.210;2023-02-28T14:16:13;21.20;;;10.90;;
57297;SDS011;43147;50.972;18.210;2023-02-28T14:18:41;14.40;;;9.30;;
57297;SDS011;43147;50.972;18.210;2023-02-28T14:26:50;23.70;;;14.00;;
57297;SDS011;43147;50.972;18.210;2023-02-28T14:32:35;25.10;;;14.30;;
57297;SDS011;43147;50.972;18.210;2023-02-28T14:37:39;27.80;;;14.00;;
57297;SDS011;43147;50.972;18.210;2023-02-28T14:40:21;32.00;;;15.00;;
57297;SDS011;43147;50.972;18.210;2023-02-28T14:42:54;25.20;;;12.90;;
57297;SDS011;43147;50.972;18.210;2023-02-28T14:45:22;18.20;;;10.40;;
57297;SDS011;43147;50.972;18.210;2023-02-28T14:47:51;26.00;;;14.10;;
57297;SDS011;43147;50.972;18.210;2023-02-28T14:50:21;23.10;;;14.40;;
57297;SDS011;43147;50.972;18.210;2023-02-28T14:52:53;32.40;;;16.70;;
57297;SDS011;43147;50.972;18.210;2023-02-28T14:55:23;41.10;;;19.60;;
57297;SDS011;43147;50.972;18.210;2023-02-28T14:57:57;50.80;;;22.90;;
57297;SDS011;43147;50.972;18.210;2023-02-28T15:00:32;121.50;;;36.80;;
57297;SDS011;43147;50.972;18.210;2023-02-28T15:02:59;84.90;;;28.20;;
57297;SDS011;43147;50.972;18.210;2023-02-28T15:08:16;42.30;;;16.50;;
57297;SDS011;43147;50.972;18.210;2023-02-28T15:16:04;26.10;;;12.80;;
57297;SDS011;43147;50.972;18.210;2023-02-28T15:23:51;34.80;;;16.90;;
57297;SDS011;43147;50.972;18.210;2023-02-28T15:26:21;25.00;;;13.50;;
57297;SDS011;43147;50.972;18.210;2023-02-28T15:28:55;27.70;;;13.50;;
57297;SDS011;43147;50.972;18.210;2023-02-28T15:31:31;36.50;;;18.70;;
57297;SDS011;43147;50.972;18.210;2023-02-28T15:34:05;30.50;;;16.10;;
57297;SDS011;43147;50.972;18.210;2023-02-28T15:36:32;25.00;;;14.70;;
57297;SDS011;43147;50.972;18.210;2023-02-28T15:39:01;19.50;;;11.40;;
57297;SDS011;43147;50.972;18.210;2023-02-28T15:41:31;22.90;;;10.40;;
57297;SDS011;43147;50.972;18.210;2023-02-28T15:46:59;26.30;;;14.20;;
57297;SDS011;43147;50.972;18.210;2023-02-28T15:49:27;50.30;;;23.70;;
57297;SDS011;43147;50.972;18.210;2023-02-28T15:51:55;56.10;;;27.40;;
57297;SDS011;43147;50.972;18.210;2023-02-28T15:54:24;25.10;;;11.90;;
57297;SDS011;43147;50.972;18.210;2023-02-28T15:56:55;32.40;;;14.50;;
57297;SDS011;43147;50.972;18.210;2023-02-28T15:59:29;29.40;;;15.10;;
57297;SDS011;43147;50.972;18.210;2023-02-28T16:04:29;52.50;;;25.60;;
57297;SDS011;43147;50.972;18.210;2023-02-28T16:07:00;45.90;;;22.80;;
57297;SDS011;43147;50.972;18.210;2023-02-28T16:09:28;31.40;;;16.20;;
57297;SDS011;43147;50.972;18.210;2023-02-28T16:11:56;27.90;;;14.70;;
57297;SDS011;43147;50.972;18.210;2023-02-28T16:14:27;30.50;;;13.10;;
57297;SDS011;43147;50.972;18.210;2023-02-28T16:17:04;39.90;;;17.40;;
57297;SDS011;43147;50.972;18.210;2023-02-28T16:19:31;30.80;;;15.40;;
57297;SDS011;43147;50.972;18.210;2023-02-28T16:21:57;46.10;;;19.90;;
57297;SDS011;43147;50.972;18.210;2023-02-28T16:24:23;54.20;;;18.90;;
57297;SDS011;43147;50.972;18.210;2023-02-28T16:26:50;56.30;;;18.80;;
57297;SDS011;43147;50.972;18.210;2023-02-28T16:29:24;64.10;;;20.30;;
57297;SDS011;43147;50.972;18.210;2023-02-28T16:31:53;33.30;;;13.70;;
57297;SDS011;43147;50.972;18.210;2023-02-28T16:34:19;53.00;;;21.60;;
57297;SDS011;43147;50.972;18.210;2023-02-28T16:36:46;54.50;;;19.50;;
57297;SDS011;43147;50.972;18.210;2023-02-28T16:39:12;51.40;;;19.50;;
57297;SDS011;43147;50.972;18.210;2023-02-28T16:41:38;61.10;;;22.80;;
57297;SDS011;43147;50.972;18.210;2023-02-28T16:44:10;42.50;;;18.60;;
57297;SDS011;43147;50.972;18.210;2023-02-28T16:46:38;60.80;;;23.40;;
57297;SDS011;43147;50.972;18.210;2023-02-28T16:49:04;71.50;;;25.50;;
57297;SDS011;43147;50.972;18.210;2023-02-28T16:51:30;46.20;;;17.80;;
57297;SDS011;43147;50.972;18.210;2023-02-28T16:53:55;45.20;;;20.70;;
57297;SDS011;43147;50.972;18.210;2023-02-28T16:56:22;51.20;;;20.90;;
57297;SDS011;43147;50.972;18.210;2023-02-28T16:58:49;54.40;;;21.20;;
57297;SDS011;43147;50.972;18.210;2023-02-28T17:01:15;35.60;;;16.10;;